Terminal Aerodrome Forecast
Issued by NWS

Home | Current Version | Previous Version | Text Only | Print | Product List | Glossary On
Versions: 1 2 3 4 5 6 7 8 9 10 11 12 13 14 15 16 17 18 19 20 21 22 23
613
FTUS41 KAKQ 251120
TAFPHF
TAF
KPHF 251120Z 2512/2612 08020G30KT 3SM -SHRA BR OVC006
     FM251400 10012G20KT 3SM -SHRA BR OVC004
     FM251600 10009KT 4SM -SHRA BR OVC007
     FM251800 09007KT 3SM -SHRA BR OVC015
     FM252200 06006KT 4SM BR OVC007
     FM260400 35004KT 2SM BR OVC004=

USA.gov is the U.S. government's official web portal to all federal, state and local government web resources and services.